To NAV CANADA Home Page Login to a new session Search on AWWS site Feedback and Comments Disclaimer Vers la page française équivalente Tips FAQ What's new on the site To the Forecasts and Observations / NOTAM section To "File a Flight Plan" website Publications and other links Update of the User's profile FIC Telephone Numbers My Weather Data Folder Route Weather Data Regional Weather Data Local Weather Data To the Forecasts and Observations / NOTAM section
Request Generated 06/26/2017 at 22:28:17 UTC . Weather information available at that time is displayed.

METAR/TAF

STEPHENVILLE/NL    

METAR CYJT 262200Z 24008KT 15SM FEW011 BKN019 14/12 A2980 RMK SF2SC5
SLP093 DENSITY ALT 200FT=
METAR CYJT 262100Z 25009KT 15SM FEW020 BKN022 15/12 A2980 RMK CU1SC6
SLP093 DENSITY ALT 200FT=
METAR CYJT 262000Z 24009KT 15SM FEW022 BKN030 BKN080 15/13 A2979 RMK
CU1SC5AC2 CU TR SLP089 DENSITY ALT 300FT=

TAF CYJT 261740Z 2618/2718 25010KT P6SM FEW020 BKN070 TEMPO 2618/2619
P6SM -SHRA BKN020
FM261900 26012KT P6SM SCT020 TEMPO 2619/2624 FEW005 BKN020 PROB30
2621/2624 BKN005
FM270000 25012KT P6SM SCT005 TEMPO 2700/2706 5SM BR BKN005 PROB30
2700/2706 3/4SM BR BKN002 OVC005
FM270600 24006KT P6SM BKN005
FM270900 20005KT P6SM FEW005
FM271500 26010KT P6SM SCT070
RMK NXT FCST BY 270000Z=
Your time UTC time
Weather data provided by Environment Canada and NAV CANADA